Terminal Aerodrome Forecast
Issued by NWS

Home | Current Version | Previous Version | Graphics & Text | Print | Product List | Glossary On
Versions: 1 2 3 4 5 6 7 8 9 10 11 12 13 14 15 16 17 18 19 20 21
000
FTUS43 KTOP 160500
TAFMHK
TAF
KMHK 160520Z 1606/1706 12006KT 4SM BR FEW008 BKN011 OVC025
     FM160700 12005KT 3SM BR BKN008 OVC025
      TEMPO 1607/1609 3SM BR SCT008
     FM161500 12006KT 4SM BR BKN015
     FM161700 14010KT P6SM SCT040
     FM162200 12009KT P6SM VCTS SCT035CB=

USA.gov is the U.S. government's official web portal to all federal, state and local government web resources and services.